Time;durP1;ratioP1;P1;durP2;ratioP2;P2;SDS_P1;SDS_P2;PMS_P1;PMS_P2;Temp;Humidity;BMP_temperature;BMP_pressure;BME280_temperature;BME280_humidity;BME280_pressure;Samples;Min_cycle;Max_cycle;Signal;HPM_P1;HPM_P2
2023/12/03 12:07:25;;;;;;;35.90;14.50;;;;;;;-1.04;93.15;100721.48;106105;1301;556951;-85
2023/12/03 12:10:19;;;;;;;26.20;8.90;;;;;;;-1.02;93.21;100724.40;108073;1274;251173;-86
2023/12/03 12:13:22;;;;;;;24.90;9.60;;;;;;;-1.04;93.63;100729.24;108751;1270;22644;-89
2023/12/03 12:16:39;;;;;;;25.50;9.10;;;;;;;-1.08;93.40;100731.12;108400;1274;23955;-87
2023/12/03 12:19:31;;;;;;;27.60;8.80;;;;;;;-1.10;93.71;100730.27;108288;1271;25407;-86
2023/12/03 12:22:25;;;;;;;26.30;8.90;;;;;;;-1.12;93.70;100736.89;108667;1271;22559;-87
2023/12/03 12:25:20;;;;;;;26.60;9.00;;;;;;;-1.12;94.09;100739.79;108587;1271;25513;-87
2023/12/03 12:28:37;;;;;;;28.20;10.10;;;;;;;-1.15;93.78;100740.41;108630;1272;22548;-85
2023/12/03 12:32:07;;;;;;;38.90;12.50;;;;;;;-1.15;94.10;100738.23;108561;1271;22535;-84
2023/12/03 12:35:24;;;;;;;27.00;8.10;;;;;;;-1.15;93.92;100745.66;108810;1268;25385;-82
2023/12/03 12:38:57;;;;;;;28.80;10.50;;;;;;;-1.15;94.01;100738.84;109287;1263;22535;-82
2023/12/03 12:42:52;;;;;;;25.30;8.60;;;;;;;-1.10;94.02;100745.13;111060;1269;22158;-83
2023/12/03 12:46:09;;;;;;;28.80;8.90;;;;;;;-1.11;93.14;100742.53;111118;1270;22104;-82
2023/12/03 12:52:13;;;;;;;24.50;8.30;;;;;;;-1.11;92.95;100745.44;105225;1304;543276;-81
2023/12/03 12:55:11;;;;;;;24.00;6.90;;;;;;;-1.15;92.72;100746.77;110681;1259;22838;-84
2023/12/03 12:58:26;;;;;;;18.70;5.30;;;;;;;-1.17;92.14;100747.38;108572;1274;22561;-82
2023/12/03 13:01:40;;;;;;;20.60;6.10;;;;;;;-1.20;91.90;100745.41;108569;1267;25362;-82
2023/12/03 13:05:13;;;;;;;20.10;5.30;;;;;;;-1.26;91.83;100745.16;108433;1269;222961;-82
2023/12/03 13:08:06;;;;;;;17.10;4.60;;;;;;;-1.31;91.75;100752.42;108550;1271;25482;-81
2023/12/03 13:11:18;;;;;;;17.20;5.10;;;;;;;-1.35;91.72;100749.44;108887;1271;27561;-82
2023/12/03 13:14:51;;;;;;;16.00;5.00;;;;;;;-1.37;91.60;100754.81;108682;1271;22588;-82
2023/12/03 13:18:24;;;;;;;22.30;7.40;;;;;;;-1.38;92.32;100753.11;109076;1271;24229;-81
2023/12/03 13:21:37;;;;;;;23.10;7.70;;;;;;;-1.36;92.47;100752.02;108879;1271;22561;-82
2023/12/03 13:24:50;;;;;;;26.10;7.00;;;;;;;-1.38;92.06;100748.80;110776;1271;22477;-89
2023/12/03 13:28:01;;;;;;;21.90;6.60;;;;;;;-1.39;92.46;100747.09;108995;1268;22782;-81
2023/12/03 13:30:53;;;;;;;19.20;5.50;;;;;;;-1.40;92.28;100744.41;108911;1262;24250;-87
2023/12/03 13:34:25;;;;;;;22.90;6.90;;;;;;;-1.43;92.30;100753.08;108919;1269;23412;-81
2023/12/03 13:37:37;;;;;;;22.00;6.70;;;;;;;-1.43;92.71;100752.23;108946;1270;24318;-84
2023/12/03 13:41:12;;;;;;;22.80;6.90;;;;;;;-1.43;92.70;100754.27;109043;1267;25210;-82
2023/12/03 13:44:06;;;;;;;23.70;8.30;;;;;;;-1.43;92.21;100748.86;108608;1269;22591;-80
2023/12/03 13:47:01;;;;;;;27.90;8.20;;;;;;;-1.45;92.23;100758.09;108932;1263;25438;-81
2023/12/03 13:50:37;;;;;;;23.30;7.10;;;;;;;-1.47;92.48;100756.89;108986;1262;24234;-82
2023/12/03 13:53:50;;;;;;;21.50;7.00;;;;;;;-1.50;92.01;100758.46;109146;1268;22564;-81
2023/12/03 13:56:43;;;;;;;24.60;7.70;;;;;;;-1.51;92.12;100762.29;109052;1269;22608;-82
2023/12/03 14:00:18;;;;;;;22.90;7.10;;;;;;;-1.52;92.28;100761.80;108875;1269;22542;-86
2023/12/03 14:03:30;;;;;;;25.00;7.90;;;;;;;-1.51;92.54;100761.02;108876;1269;25323;-85
2023/12/03 14:06:23;;;;;;;23.80;7.50;;;;;;;-1.50;92.63;100765.73;108772;1265;22555;-84
2023/12/03 14:09:36;;;;;;;18.10;5.60;;;;;;;-1.49;92.71;100770.04;108660;1270;22610;-86
2023/12/03 14:12:29;;;;;;;22.50;6.70;;;;;;;-1.50;92.61;100775.19;108841;1258;22706;-86
2023/12/03 14:15:42;;;;;;;22.10;6.60;;;;;;;-1.49;92.81;100776.45;108678;1269;23202;-86
2023/12/03 14:18:34;;;;;;;32.80;10.30;;;;;;;-1.49;92.81;100778.48;108730;1269;22529;-84
2023/12/03 14:21:47;;;;;;;24.00;7.80;;;;;;;-1.49;93.01;100780.67;108697;1268;25538;-84
2023/12/03 14:25:00;;;;;;;22.10;6.70;;;;;;;-1.49;93.04;100783.17;108633;1269;24199;-84
2023/12/03 14:27:57;;;;;;;19.60;6.10;;;;;;;-1.52;93.24;100783.48;108636;1269;22581;-85
2023/12/03 14:30:51;;;;;;;18.10;5.00;;;;;;;-1.52;93.34;100788.64;108720;1269;26855;-82
2023/12/03 14:33:46;;;;;;;19.00;5.40;;;;;;;-1.54;93.24;100792.63;108637;1269;24270;-83
2023/12/03 14:37:00;;;;;;;14.30;3.90;;;;;;;-1.56;93.14;100795.50;108624;1268;22936;-82
2023/12/03 14:39:54;;;;;;;19.30;5.30;;;;;;;-1.60;93.15;100797.59;108502;1269;22572;-83
2023/12/03 14:42:47;;;;;;;19.50;5.70;;;;;;;-1.63;93.18;100802.21;108441;1269;25491;-84
2023/12/03 14:46:23;;;;;;;19.60;5.80;;;;;;;-1.67;93.22;100796.55;108429;1269;22586;-83
2023/12/03 14:49:35;;;;;;;21.80;6.30;;;;;;;-1.70;93.19;100801.52;108720;1270;22527;-85
2023/12/03 14:52:30;;;;;;;28.30;8.00;;;;;;;-1.73;93.27;100802.46;108893;1269;26569;-85
2023/12/03 14:55:24;;;;;;;24.20;7.20;;;;;;;-1.75;93.47;100804.41;108622;1269;23791;-83
2023/12/03 14:58:16;;;;;;;29.50;9.90;;;;;;;-1.77;93.38;100807.36;108578;1269;25313;-83
2023/12/03 15:01:10;;;;;;;35.80;12.60;;;;;;;-1.81;93.29;100807.33;108615;1269;22550;-84
2023/12/03 15:04:01;;;;;;;37.60;13.40;;;;;;;-1.84;93.32;100809.74;108656;1268;23891;-83
2023/12/03 15:07:35;;;;;;;33.10;11.70;;;;;;;-1.89;93.26;100814.01;109134;1262;22724;-84
2023/12/03 15:11:27;;;;;;;31.80;12.20;;;;;;;-1.94;93.43;100816.17;108995;1262;22581;-84
2023/12/03 15:15:21;;;;;;;29.50;10.80;;;;;;;-1.98;93.48;100821.69;108786;1263;22532;-83
2023/12/03 15:18:53;;;;;;;35.10;12.50;;;;;;;-2.03;93.63;100826.89;109422;1262;22620;-80
2023/12/03 15:21:46;;;;;;;39.70;14.90;;;;;;;-2.02;93.62;100829.86;108300;1269;22523;-79
2023/12/03 15:24:38;;;;;;;42.40;16.10;;;;;;;-2.02;93.75;100832.84;108386;1265;22524;-80
2023/12/03 15:27:30;;;;;;;43.50;17.80;;;;;;;-2.05;93.77;100834.45;108368;1263;22617;-79
2023/12/03 15:30:21;;;;;;;37.80;16.10;;;;;;;-2.08;93.67;100842.27;108340;1263;22534;-85
2023/12/03 15:33:53;;;;;;;51.50;19.80;;;;;;;-2.11;93.93;100843.32;111192;1269;22063;-81
2023/12/03 15:36:48;;;;;;;42.80;18.90;;;;;;;-2.08;94.31;100846.63;111185;1261;22356;-80
2023/12/03 15:39:40;;;;;;;51.10;21.30;;;;;;;-2.07;94.25;100850.70;111146;1269;22192;-81
2023/12/03 15:42:31;;;;;;;61.60;25.40;;;;;;;-2.07;94.07;100854.37;111185;1265;22093;-81
2023/12/03 15:45:25;;;;;;;78.10;29.70;;;;;;;-2.08;94.12;100854.28;111186;1263;22221;-82
2023/12/03 15:48:17;;;;;;;77.00;31.90;;;;;;;-2.08;94.22;100856.70;111157;1265;22331;-81
2023/12/03 15:51:09;;;;;;;55.00;23.30;;;;;;;-2.08;94.34;100858.34;111205;1266;22989;-80
2023/12/03 15:54:21;;;;;;;56.50;22.70;;;;;;;-2.08;94.43;100857.41;111170;1265;23149;-82
2023/12/03 15:57:13;;;;;;;53.90;21.60;;;;;;;-2.08;94.57;100858.11;111173;1268;22147;-82
2023/12/03 16:00:07;;;;;;;53.90;21.70;;;;;;;-2.11;94.63;100861.05;111115;1266;23028;-81
2023/12/03 16:03:03;;;;;;;49.40;20.60;;;;;;;-2.13;94.77;100859.33;111196;1266;23041;-81
2023/12/03 16:05:56;;;;;;;50.00;20.40;;;;;;;-2.15;94.77;100857.04;111150;1262;22384;-82
2023/12/03 16:08:50;;;;;;;52.30;21.60;;;;;;;-2.18;94.98;100860.07;111054;1270;22850;-81
2023/12/03 16:12:01;;;;;;;55.00;20.20;;;;;;;-2.20;95.27;100861.86;111196;1269;22334;-81
2023/12/03 16:14:53;;;;;;;54.50;22.30;;;;;;;-2.21;95.39;100860.43;111169;1269;22146;-81
2023/12/03 16:17:45;;;;;;;48.20;21.20;;;;;;;-2.22;95.56;100862.84;111212;1258;22107;-83
2023/12/03 16:20:36;;;;;;;54.00;21.00;;;;;;;-2.21;95.71;100874.88;111154;1266;22246;-86
2023/12/03 16:23:48;;;;;;;54.60;21.20;;;;;;;-2.19;95.83;100875.06;109541;1269;22610;-81
2023/12/03 16:27:01;;;;;;;51.40;20.20;;;;;;;-2.19;95.98;100874.52;109169;1263;22601;-81
2023/12/03 16:30:16;;;;;;;50.50;21.10;;;;;;;-2.19;95.95;100871.23;109107;1257;22670;-81
2023/12/03 16:33:10;;;;;;;47.20;19.70;;;;;;;-2.18;96.12;100867.57;108111;1265;22763;-80
2023/12/03 16:36:07;;;;;;;50.10;20.60;;;;;;;-2.17;96.32;100870.47;111113;1268;22275;-81
2023/12/03 16:39:00;;;;;;;44.70;21.30;;;;;;;-2.17;96.24;100873.90;111149;1269;22314;-86
2023/12/03 16:42:16;;;;;;;51.10;19.80;;;;;;;-2.17;96.44;100875.08;111199;1268;22373;-85
2023/12/03 16:45:29;;;;;;;53.00;20.70;;;;;;;-2.16;96.48;100875.88;111202;1267;23114;-84
2023/12/03 16:48:25;;;;;;;47.10;20.80;;;;;;;-2.12;96.48;100883.55;110904;1262;22560;-82
2023/12/03 16:51:17;;;;;;;46.20;19.00;;;;;;;-2.12;96.51;100888.56;108925;1269;25290;-82
2023/12/03 16:54:09;;;;;;;48.60;20.90;;;;;;;-2.11;96.67;100885.45;108913;1269;22706;-84
2023/12/03 16:58:00;;;;;;;51.70;22.00;;;;;;;-2.09;96.71;100886.17;109108;1269;25251;-84
2023/12/03 17:26:49;;;;;;;;;;;;;;;-2.15;96.23;100893.46;110395;1271;22524;-89
2023/12/03 17:37:58;;;;;;;62.80;26.80;;;;;;;-2.24;96.33;100895.17;108247;1274;22712;-84
2023/12/03 17:42:56;;;;;;;50.90;21.70;;;;;;;-2.25;96.53;100898.60;108853;1274;24571;-89
2023/12/03 17:47:30;;;;;;;52.90;19.60;;;;;;;-2.28;96.60;100905.38;108317;1280;24313;-87
2023/12/03 17:50:26;;;;;;;50.80;22.50;;;;;;;-2.28;96.70;100904.91;110070;1280;22116;-88
2023/12/03 17:53:19;;;;;;;55.70;23.30;;;;;;;-2.29;96.60;100906.36;110125;1281;22310;-87
2023/12/03 17:56:30;;;;;;;58.20;25.00;;;;;;;-2.31;96.54;100908.39;110109;1276;22173;-86
2023/12/03 18:00:02;;;;;;;55.00;23.10;;;;;;;-2.31;96.61;100906.52;109995;1279;22239;-89
2023/12/03 18:03:36;;;;;;;53.20;22.10;;;;;;;-2.31;96.49;100914.80;109904;1285;22148;-90
2023/12/03 18:07:14;;;;;;;53.70;21.60;;;;;;;-2.31;96.46;100918.46;109887;1280;22388;-84
2023/12/03 18:10:11;;;;;;;49.50;21.50;;;;;;;-2.33;96.53;100920.02;109825;1277;22853;-85
2023/12/03 18:13:03;;;;;;;42.90;20.50;;;;;;;-2.34;96.56;100923.59;109836;1283;22318;-85
2023/12/03 18:16:15;;;;;;;52.80;22.70;;;;;;;-2.35;96.71;100925.54;109590;1283;23411;-84
2023/12/03 18:19:46;;;;;;;55.70;22.30;;;;;;;-2.35;96.86;100930.54;108105;1278;25564;-86
2023/12/03 18:23:42;;;;;;;56.50;25.60;;;;;;;-2.32;97.00;100929.93;108006;1280;22962;-86
2023/12/03 18:26:58;;;;;;;57.90;24.30;;;;;;;-2.31;97.07;100931.83;108023;1279;22688;-87
2023/12/03 18:29:51;;;;;;;54.60;24.10;;;;;;;-2.31;97.03;100930.58;109705;1285;22432;-86
2023/12/03 18:33:27;;;;;;;52.70;23.60;;;;;;;-2.32;97.07;100925.56;109759;1280;22198;-86
2023/12/03 18:37:00;;;;;;;60.70;26.40;;;;;;;-2.31;97.29;100923.85;108513;1277;22661;-85
2023/12/03 18:40:14;;;;;;;64.30;28.10;;;;;;;-2.31;97.41;100923.48;108240;1274;23628;-85
2023/12/03 18:44:46;;;;;;;60.00;27.70;;;;;;;-2.29;97.48;100924.96;108385;1273;22594;-88
2023/12/03 18:48:23;;;;;;;57.40;24.50;;;;;;;-2.27;97.59;100926.48;110081;1277;22207;-87
2023/12/03 18:52:04;;;;;;;58.60;25.60;;;;;;;-2.24;97.50;100924.23;108101;1274;22574;-86
2023/12/03 18:54:56;;;;;;;52.60;23.90;;;;;;;-2.24;97.47;100921.89;107967;1280;27705;-85
2023/12/03 18:59:10;;;;;;;141.60;54.70;;;;;;;-2.25;97.38;100921.89;107891;1273;24068;-84
2023/12/03 19:02:42;;;;;;;102.30;39.00;;;;;;;-2.28;97.27;100920.92;107957;1274;22601;-85
2023/12/03 19:05:55;;;;;;;76.70;29.00;;;;;;;-2.28;97.39;100917.02;108043;1280;25525;-86
2023/12/03 19:09:29;;;;;;;59.80;23.80;;;;;;;-2.31;97.15;100918.62;107853;1273;25232;-85
2023/12/03 19:12:22;;;;;;;57.40;26.40;;;;;;;-2.33;97.15;100918.67;107766;1280;22663;-84
2023/12/03 19:15:14;;;;;;;70.20;31.20;;;;;;;-2.37;97.07;100916.68;107752;1281;22580;-80
2023/12/03 19:18:08;;;;;;;69.20;28.80;;;;;;;-2.40;97.02;100919.16;107811;1275;23321;-82
2023/12/03 19:21:41;;;;;;;57.30;24.70;;;;;;;-2.47;96.98;100922.45;107871;1280;25729;-84
2023/12/03 19:25:54;;;;;;;59.60;24.70;;;;;;;-2.52;96.87;100926.69;107691;1280;22576;-84
2023/12/03 19:29:47;;;;;;;55.70;23.00;;;;;;;-2.55;97.02;100930.41;107708;1281;24966;-81
2023/12/03 19:33:00;;;;;;;58.40;24.70;;;;;;;-2.57;96.99;100933.66;107920;1277;25535;-83
2023/12/03 19:35:52;;;;;;;56.20;24.20;;;;;;;-2.58;97.03;100939.91;107671;1280;23264;-84
2023/12/03 19:38:43;;;;;;;51.30;21.80;;;;;;;-2.57;97.20;100941.95;107753;1282;23110;-83
2023/12/03 19:41:56;;;;;;;43.70;17.80;;;;;;;-2.59;96.98;100939.89;107664;1281;23295;-81
2023/12/03 19:45:08;;;;;;;46.60;17.80;;;;;;;-2.63;96.88;100940.70;107658;1281;24249;-81
2023/12/03 19:47:59;;;;;;;48.40;17.50;;;;;;;-2.67;96.91;100942.98;107709;1273;22744;-82
2023/12/03 19:51:51;;;;;;;46.80;18.70;;;;;;;-2.75;96.67;100948.52;107724;1281;22615;-81
2023/12/03 19:55:06;;;;;;;53.20;21.70;;;;;;;-2.79;96.74;100948.93;107747;1281;22610;-81
2023/12/03 19:58:34;;;;;;;48.40;20.10;;;;;;;-2.81;96.81;100948.92;107977;1279;25501;-81
2023/12/03 20:01:25;;;;;;;63.70;26.90;;;;;;;-2.82;96.69;100948.52;107782;1281;22716;-81
2023/12/03 20:04:57;;;;;;;67.70;27.70;;;;;;;-2.84;96.44;100954.34;107583;1280;24252;-81
2023/12/03 20:07:49;;;;;;;65.10;27.80;;;;;;;-2.87;96.51;100954.31;107834;1280;22687;-82
2023/12/03 20:11:23;;;;;;;58.60;24.20;;;;;;;-2.92;96.50;100953.86;107968;1274;25462;-83
2023/12/03 20:14:15;;;;;;;55.20;23.60;;;;;;;-2.94;96.57;100956.27;107881;1278;23166;-81
2023/12/03 20:17:11;;;;;;;59.70;25.10;;;;;;;-2.94;96.51;100958.52;107809;1276;23996;-84
2023/12/03 20:20:24;;;;;;;49.30;22.60;;;;;;;-2.96;96.33;100958.65;108091;1273;22650;-83
2023/12/03 20:24:16;;;;;;;50.30;19.70;;;;;;;-2.99;96.37;100956.73;107683;1280;22740;-85
2023/12/03 20:27:07;;;;;;;58.90;26.30;;;;;;;-3.02;96.52;100954.96;107885;1270;24202;-83
2023/12/03 20:30:39;;;;;;;59.00;23.90;;;;;;;-3.04;96.26;100955.56;107915;1280;24948;-82
2023/12/03 20:33:51;;;;;;;55.00;23.00;;;;;;;-3.07;96.25;100960.77;107836;1280;22558;-82
2023/12/03 20:36:43;;;;;;;45.30;19.80;;;;;;;-3.09;96.28;100961.20;107847;1280;24217;-82
2023/12/03 20:40:16;;;;;;;47.50;22.10;;;;;;;-3.12;96.33;100960.14;107793;1281;24483;-82
2023/12/03 20:43:10;;;;;;;50.10;21.80;;;;;;;-3.12;96.46;100963.19;107859;1281;22663;-83
2023/12/03 20:46:21;;;;;;;54.20;22.80;;;;;;;-3.13;96.51;100961.14;107991;1270;23063;-84
2023/12/03 20:49:13;;;;;;;54.00;20.90;;;;;;;-3.15;96.41;100959.64;107699;1276;25551;-84
2023/12/03 20:52:26;;;;;;;53.40;22.20;;;;;;;-3.16;96.30;100965.06;107722;1281;26967;-86
2023/12/03 20:55:58;;;;;;;59.30;25.30;;;;;;;-3.19;96.05;100967.77;107791;1281;22705;-82
2023/12/03 20:59:51;;;;;;;56.70;23.60;;;;;;;-3.24;95.74;100967.23;107853;1277;24404;-83
2023/12/03 21:03:04;;;;;;;59.40;23.80;;;;;;;-3.30;95.52;100966.13;107811;1280;22802;-82
2023/12/03 21:05:56;;;;;;;55.00;22.80;;;;;;;-3.34;95.44;100970.60;107821;1281;22573;-81
2023/12/03 21:08:54;;;;;;;58.40;22.40;;;;;;;-3.38;95.30;100970.52;107844;1281;24216;-82
2023/12/03 21:11:46;;;;;;;77.50;29.60;;;;;;;-3.42;95.23;100966.19;107896;1276;22699;-82
2023/12/03 21:15:20;;;;;;;93.70;37.20;;;;;;;-3.49;95.15;100962.10;107802;1280;22680;-81
2023/12/03 21:18:33;;;;;;;88.60;35.50;;;;;;;-3.54;95.21;100958.84;107656;1281;23054;-82
2023/12/03 21:21:45;;;;;;;82.60;33.30;;;;;;;-3.58;95.13;100955.96;107629;1281;22700;-83
2023/12/03 21:24:56;;;;;;;79.50;32.30;;;;;;;-3.63;95.01;100955.03;107659;1281;24201;-81
2023/12/03 21:28:48;;;;;;;62.00;26.50;;;;;;;-3.71;95.09;100954.88;107675;1281;24393;-82
2023/12/03 21:31:39;;;;;;;65.50;26.60;;;;;;;-3.76;95.18;100955.73;107699;1259;25483;-83
2023/12/03 21:34:31;;;;;;;63.40;25.90;;;;;;;-3.82;95.22;100960.33;107762;1281;22583;-82
2023/12/03 21:37:23;;;;;;;57.30;22.90;;;;;;;-3.87;95.31;100961.64;107769;1281;23035;-83
2023/12/03 21:40:36;;;;;;;54.00;23.30;;;;;;;-3.93;95.34;100963.41;107794;1281;23046;-82
2023/12/03 21:43:49;;;;;;;64.80;26.50;;;;;;;-3.97;95.59;100962.47;107676;1281;22705;-82
2023/12/03 21:46:41;;;;;;;64.60;26.60;;;;;;;-4.01;95.69;100964.67;107709;1281;23188;-82
2023/12/03 21:50:14;;;;;;;77.20;31.50;;;;;;;-4.03;95.74;100966.20;107755;1266;25511;-82
2023/12/03 21:53:07;;;;;;;60.90;28.40;;;;;;;-4.06;95.59;100967.93;107929;1280;22986;-81
2023/12/03 21:57:20;;;;;;;65.10;27.40;;;;;;;-4.07;95.50;100967.61;107837;1277;24030;-82
2023/12/03 22:00:14;;;;;;;66.80;27.70;;;;;;;-4.08;95.41;100967.66;107649;1281;22863;-82
2023/12/03 22:03:08;;;;;;;68.20;29.90;;;;;;;-4.13;95.06;100970.55;107516;1281;24305;-82
2023/12/03 22:06:40;;;;;;;64.10;27.10;;;;;;;-4.18;94.85;100975.06;107565;1281;24423;-82
2023/12/03 22:09:52;;;;;;;65.10;26.50;;;;;;;-4.24;94.75;100977.19;107444;1281;24065;-83
2023/12/03 22:13:03;;;;;;;70.60;29.80;;;;;;;-4.31;94.71;100979.02;107511;1280;24582;-82
2023/12/03 22:15:55;;;;;;;69.40;28.40;;;;;;;-4.33;94.86;100979.36;107549;1281;24261;-82
2023/12/03 22:19:07;;;;;;;71.70;29.70;;;;;;;-4.38;94.66;100976.23;107636;1281;22706;-82
2023/12/03 22:22:57;;;;;;;62.30;26.10;;;;;;;-4.48;94.47;100979.55;107545;1281;22778;-82
2023/12/03 22:26:49;;;;;;;71.20;26.70;;;;;;;-4.58;94.60;100983.41;107589;1281;24332;-82
2023/12/03 22:30:01;;;;;;;73.30;27.70;;;;;;;-4.64;94.75;100979.77;107453;1281;22630;-82
2023/12/03 22:33:32;;;;;;;58.20;25.70;;;;;;;-4.66;94.89;100974.27;107685;1281;22746;-82
2023/12/03 22:36:23;;;;;;;65.90;25.10;;;;;;;-4.69;94.78;100977.33;107518;1281;25567;-82
2023/12/03 22:39:35;;;;;;;63.40;26.10;;;;;;;-4.75;94.73;100981.49;107623;1270;24391;-82
2023/12/03 22:42:28;;;;;;;70.50;25.50;;;;;;;-4.80;94.66;100982.30;107507;1281;22669;-83
2023/12/03 22:45:19;;;;;;;68.60;26.70;;;;;;;-4.85;94.76;100982.77;107529;1281;22610;-82
2023/12/03 22:48:33;;;;;;;64.50;26.00;;;;;;;-4.86;94.71;100982.64;107431;1281;25687;-82
2023/12/03 22:51:24;;;;;;;76.20;26.80;;;;;;;-4.89;94.61;100985.02;107504;1281;22570;-81
2023/12/03 22:54:15;;;;;;;61.80;24.70;;;;;;;-4.93;94.51;100983.92;107490;1281;27715;-82
2023/12/03 22:57:27;;;;;;;60.50;24.40;;;;;;;-4.96;94.57;100985.64;107676;1281;24382;-81
2023/12/03 23:01:42;;;;;;;57.50;22.40;;;;;;;-5.02;94.35;100982.39;107738;1281;26403;-83
2023/12/03 23:04:33;;;;;;;63.20;24.00;;;;;;;-5.05;94.24;100978.74;107618;1281;24248;-82
2023/12/03 23:07:45;;;;;;;69.70;30.00;;;;;;;-5.08;94.30;100977.45;107669;1258;22875;-82
2023/12/03 23:10:57;;;;;;;74.60;31.10;;;;;;;-5.07;94.30;100979.17;107707;1261;23168;-82
2023/12/03 23:13:48;;;;;;;80.30;33.90;;;;;;;-5.07;94.06;100979.64;107479;1281;25565;-82
2023/12/03 23:16:43;;;;;;;77.40;33.70;;;;;;;-5.07;93.84;100976.38;107526;1281;22660;-81
2023/12/03 23:19:35;;;;;;;78.90;35.20;;;;;;;-5.08;93.78;100974.18;107515;1281;22618;-82
2023/12/03 23:23:50;;;;;;;75.50;30.00;;;;;;;-5.09;93.54;100974.54;107533;1281;23571;-82
2023/12/03 23:31:17;;;;;;;67.00;27.60;;;;;;;-5.16;93.04;100974.39;107436;1257;22833;-82
2023/12/03 23:34:09;;;;;;;73.30;29.40;;;;;;;-5.18;92.83;100974.95;107671;1280;22622;-83
2023/12/03 23:37:41;;;;;;;64.60;27.00;;;;;;;-5.26;92.44;100973.40;107570;1281;23300;-82
2023/12/03 23:41:12;;;;;;;71.70;29.20;;;;;;;-5.33;92.44;100974.94;107552;1281;22620;-81
2023/12/03 23:44:24;;;;;;;70.60;28.80;;;;;;;-5.36;92.72;100980.16;107533;1281;22635;-82
2023/12/03 23:47:56;;;;;;;74.60;28.90;;;;;;;-5.39;92.56;100981.95;107559;1280;22595;-82
2023/12/03 23:51:09;;;;;;;70.70;28.30;;;;;;;-5.44;92.36;100987.29;107476;1281;22813;-81
2023/12/03 23:54:44;;;;;;;65.50;26.60;;;;;;;-5.51;92.14;100982.60;107622;1281;22588;-81
2023/12/03 23:57:57;;;;;;;67.60;26.50;;;;;;;-5.59;92.19;100976.89;107468;1281;25540;-81
